createdAt,value
2022-12-22T00:01:58.050Z,2.75
2022-12-22T00:04:44.167Z,2.40
2022-12-22T00:07:30.170Z,1.02
2022-12-22T00:10:15.927Z,2.40
2022-12-22T00:13:01.992Z,2.30
2022-12-22T00:15:51.377Z,2.65
2022-12-22T00:18:37.737Z,1.40
2022-12-22T00:21:23.792Z,2.20
2022-12-22T00:24:10.018Z,2.28
2022-12-22T00:26:55.978Z,2.22
2022-12-22T00:29:41.982Z,2.67
2022-12-22T00:32:32.699Z,2.08
2022-12-22T00:35:19.585Z,1.35
2022-12-22T00:38:05.523Z,2.08
2022-12-22T00:40:51.551Z,1.38
2022-12-22T00:43:37.355Z,2.67
2022-12-22T00:46:23.713Z,1.80
2022-12-22T00:49:10.126Z,2.65
2022-12-22T00:51:56.049Z,2.25
2022-12-22T00:54:42.777Z,2.28
2022-12-22T00:57:40.101Z,2.10
2022-12-22T01:00:33.637Z,2.40
2022-12-22T01:03:19.879Z,2.47
2022-12-22T01:06:06.201Z,2.70
2022-12-22T01:08:54.018Z,2.40
2022-12-22T01:11:40.140Z,1.80
2022-12-22T01:14:34.583Z,2.17
2022-12-22T01:17:20.812Z,2.80
2022-12-22T01:20:06.843Z,2.20
2022-12-22T01:22:53.031Z,2.22
2022-12-22T01:25:39.315Z,2.55
2022-12-22T01:28:25.569Z,2.35
2022-12-22T01:31:11.789Z,2.35
2022-12-22T01:33:57.868Z,2.40
2022-12-22T01:36:43.829Z,2.38
2022-12-22T01:39:30.127Z,2.63
2022-12-22T01:42:16.174Z,2.30
2022-12-22T01:45:02.515Z,2.33
2022-12-22T01:47:48.678Z,2.75
2022-12-22T01:50:54.824Z,2.17
2022-12-22T01:53:46.561Z,2.65
2022-12-22T01:56:32.840Z,2.53
2022-12-22T01:59:22.736Z,2.38
2022-12-22T02:02:08.766Z,2.17
2022-12-22T02:04:58.950Z,1.73
2022-12-22T02:07:54.058Z,2.78
2022-12-22T02:11:14.639Z,2.20
2022-12-22T02:14:37.264Z,2.83
2022-12-22T02:17:41.693Z,2.47
2022-12-22T02:21:07.391Z,2.50
2022-12-22T02:24:14.884Z,2.53
2022-12-22T02:27:05.272Z,2.92
2022-12-22T02:29:58.471Z,2.25
2022-12-22T02:32:44.949Z,2.53
2022-12-22T02:35:35.776Z,2.17
2022-12-22T02:38:36.906Z,2.28
2022-12-22T02:42:08.721Z,2.83
2022-12-22T02:45:18.678Z,2.42
2022-12-22T02:48:13.168Z,2.85
2022-12-22T02:51:05.518Z,2.60
2022-12-22T02:53:52.038Z,2.83
2022-12-22T02:56:38.650Z,2.55
2022-12-22T02:59:24.506Z,2.63
2022-12-22T03:02:11.035Z,2.63
2022-12-22T03:04:57.475Z,2.83
2022-12-22T03:07:43.446Z,3.38
2022-12-22T03:10:29.391Z,2.42
2022-12-22T03:13:18.372Z,2.50
2022-12-22T03:16:04.527Z,2.15
2022-12-22T03:18:50.819Z,3.00
2022-12-22T03:21:37.246Z,2.95
2022-12-22T03:24:23.511Z,2.78
2022-12-22T03:26:50.985Z,3.20
2022-12-22T03:29:18.677Z,3.28
2022-12-22T03:31:46.210Z,2.55
2022-12-22T03:34:13.875Z,2.67
2022-12-22T03:36:41.322Z,3.13
2022-12-22T03:39:10.043Z,3.17
2022-12-22T03:41:56.251Z,3.55
2022-12-22T03:44:42.185Z,3.17
2022-12-22T03:47:09.706Z,3.10
2022-12-22T03:49:37.293Z,3.25
2022-12-22T03:54:33.690Z,3.15
2022-12-22T03:57:01.048Z,3.20
2022-12-22T03:59:28.486Z,4.22
2022-12-22T04:01:56.086Z,3.28
2022-12-22T04:04:26.041Z,3.10
2022-12-22T04:06:54.542Z,3.92
2022-12-22T04:09:22.845Z,3.17
2022-12-22T04:12:09.353Z,3.25
2022-12-22T04:14:37.451Z,3.25
2022-12-22T04:17:06.156Z,3.22
2022-12-22T04:19:33.670Z,3.25
2022-12-22T04:22:01.347Z,3.30
2022-12-22T04:24:28.968Z,3.50
2022-12-22T04:26:56.412Z,3.95
2022-12-22T04:29:23.908Z,3.45
2022-12-22T04:31:51.363Z,3.20
2022-12-22T04:34:18.819Z,3.90
2022-12-22T04:36:46.332Z,3.20
2022-12-22T04:39:13.745Z,3.20
2022-12-22T04:41:41.504Z,3.70
2022-12-22T04:44:08.974Z,3.70
2022-12-22T04:46:36.436Z,4.82
2022-12-22T04:49:03.826Z,3.33
2022-12-22T04:51:31.216Z,3.67
2022-12-22T04:53:58.557Z,3.78
2022-12-22T04:56:25.960Z,4.30
2022-12-22T04:58:53.336Z,4.22
2022-12-22T05:01:20.974Z,3.78
2022-12-22T05:03:48.507Z,4.00
2022-12-22T05:06:16.417Z,3.70
2022-12-22T05:08:43.894Z,4.55
2022-12-22T05:11:11.520Z,4.57
2022-12-22T05:13:38.935Z,4.53
2022-12-22T05:16:08.935Z,4.53
2022-12-22T05:18:37.490Z,5.07
2022-12-22T05:21:11.397Z,4.10
2022-12-22T05:23:39.119Z,5.00
2022-12-22T05:26:07.153Z,5.57
2022-12-22T05:28:35.202Z,5.25
2022-12-22T05:31:07.610Z,4.90
2022-12-22T05:33:35.719Z,5.68
2022-12-22T05:36:03.566Z,5.82
2022-12-22T05:38:31.084Z,5.97
2022-12-22T05:41:03.992Z,5.82
2022-12-22T05:43:33.745Z,4.97
2022-12-22T05:46:06.586Z,6.53
2022-12-22T05:48:38.585Z,6.50
2022-12-22T05:51:08.435Z,5.05
2022-12-22T05:53:38.080Z,5.65
2022-12-22T05:56:06.254Z,4.35
2022-12-22T05:58:34.661Z,5.28
2022-12-22T06:01:02.087Z,5.32
2022-12-22T06:03:30.697Z,4.20
2022-12-22T06:05:58.917Z,4.88
2022-12-22T06:08:26.923Z,4.90
2022-12-22T06:10:55.672Z,4.30
2022-12-22T06:13:24.062Z,4.78
2022-12-22T06:15:51.658Z,4.30
2022-12-22T06:18:19.264Z,2.30
2022-12-22T06:20:47.659Z,4.15
2022-12-22T06:23:15.062Z,4.10
2022-12-22T06:25:42.498Z,4.40
2022-12-22T06:28:09.978Z,4.80
2022-12-22T06:30:37.407Z,4.28
2022-12-22T06:33:04.865Z,4.05
2022-12-22T06:35:32.382Z,4.07
2022-12-22T06:37:59.806Z,3.80
2022-12-22T06:40:27.314Z,4.40
2022-12-22T06:43:14.912Z,3.95
2022-12-22T06:45:43.568Z,3.55
2022-12-22T06:48:12.475Z,3.67
2022-12-22T06:50:40.257Z,4.07
2022-12-22T06:53:08.257Z,4.10
2022-12-22T06:55:36.853Z,4.07
2022-12-22T06:58:05.448Z,4.13
2022-12-22T07:00:33.972Z,4.05
2022-12-22T07:03:01.683Z,4.28
2022-12-22T07:05:32.143Z,4.15
2022-12-22T07:08:07.737Z,3.92
2022-12-22T07:10:54.421Z,3.47
2022-12-22T07:13:22.232Z,3.40
2022-12-22T07:15:57.464Z,3.53
2022-12-22T07:18:32.857Z,4.18
2022-12-22T07:21:02.121Z,2.83
2022-12-22T07:23:30.111Z,4.35
2022-12-22T07:25:58.071Z,3.53
2022-12-22T07:28:25.798Z,4.20
2022-12-22T07:30:54.521Z,3.72
2022-12-22T07:33:22.068Z,3.53
2022-12-22T07:36:05.521Z,3.95
2022-12-22T07:38:38.132Z,3.72
2022-12-22T07:41:26.480Z,3.65
2022-12-22T07:43:55.839Z,3.60
2022-12-22T07:46:25.480Z,3.53
2022-12-22T07:49:11.589Z,3.78
2022-12-22T07:51:41.297Z,3.50
2022-12-22T07:54:11.483Z,3.30
2022-12-22T07:56:39.349Z,3.90
2022-12-22T07:59:06.911Z,3.45
2022-12-22T08:01:34.636Z,3.80
2022-12-22T08:04:02.153Z,3.83
2022-12-22T08:06:29.672Z,3.40
2022-12-22T08:08:57.248Z,3.38
2022-12-22T08:11:24.601Z,3.63
2022-12-22T08:13:57.345Z,3.58
2022-12-22T08:16:28.479Z,3.33
2022-12-22T08:18:56.387Z,3.85
2022-12-22T08:21:24.252Z,2.97
2022-12-22T08:23:51.953Z,3.90
2022-12-22T08:26:31.214Z,3.37
2022-12-22T08:29:11.201Z,3.90
2022-12-22T08:31:39.914Z,3.25
2022-12-22T08:34:10.908Z,3.50
2022-12-22T08:36:42.326Z,3.58
2022-12-22T08:39:10.984Z,3.45
2022-12-22T08:41:50.336Z,3.58
2022-12-22T08:44:30.249Z,3.50
2022-12-22T08:46:59.729Z,3.05
2022-12-22T08:49:27.653Z,2.92
2022-12-22T08:51:55.253Z,3.80
2022-12-22T08:54:22.923Z,3.60
2022-12-22T08:56:50.422Z,3.17
2022-12-22T08:59:18.207Z,3.22
2022-12-22T09:01:51.020Z,3.03
2022-12-22T09:04:21.851Z,3.35
2022-12-22T09:06:51.038Z,3.13
2022-12-22T09:09:18.554Z,3.10
2022-12-22T09:11:46.146Z,2.63
2022-12-22T09:14:13.735Z,2.92
2022-12-22T09:16:41.539Z,2.88
2022-12-22T09:19:09.361Z,3.55
2022-12-22T09:21:37.084Z,3.17
2022-12-22T09:24:04.785Z,2.83
2022-12-22T09:26:32.839Z,3.30
2022-12-22T09:29:00.333Z,3.05
2022-12-22T09:31:28.404Z,2.85
2022-12-22T09:33:56.333Z,2.63
2022-12-22T09:36:27.081Z,2.92
2022-12-22T09:38:54.881Z,2.55
2022-12-22T09:41:32.065Z,3.17
2022-12-22T09:44:11.481Z,2.70
2022-12-22T09:46:39.827Z,2.97
2022-12-22T09:49:07.658Z,2.33
2022-12-22T09:51:43.099Z,2.63
2022-12-22T09:54:13.022Z,2.60
2022-12-22T09:56:40.991Z,2.75
2022-12-22T09:59:17.011Z,2.65
2022-12-22T10:02:06.549Z,2.53
2022-12-22T10:04:49.744Z,2.35
2022-12-22T10:07:21.821Z,2.53
2022-12-22T10:09:51.145Z,2.50
2022-12-22T10:12:25.481Z,2.22
2022-12-22T10:14:55.195Z,2.30
2022-12-22T10:17:24.712Z,2.40
2022-12-22T10:19:54.811Z,2.40
2022-12-22T10:22:30.652Z,3.03
2022-12-22T10:25:01.676Z,2.60
2022-12-22T10:27:37.255Z,2.47
2022-12-22T10:30:27.110Z,2.22
2022-12-22T10:33:11.274Z,2.28
2022-12-22T10:35:59.037Z,2.05
2022-12-22T10:38:33.705Z,2.70
2022-12-22T10:41:22.347Z,2.40
2022-12-22T10:43:56.054Z,2.00
2022-12-22T10:46:35.536Z,2.70
2022-12-22T10:49:17.684Z,2.17
2022-12-22T10:51:52.388Z,2.45
2022-12-22T10:54:31.477Z,2.47
2022-12-22T10:57:29.183Z,1.85
2022-12-22T11:00:01.845Z,2.28
2022-12-22T11:02:38.578Z,2.20
2022-12-22T11:05:11.425Z,2.33
2022-12-22T11:07:45.061Z,2.15
2022-12-22T11:10:21.357Z,2.45
2022-12-22T11:13:17.519Z,2.42
2022-12-22T11:15:47.914Z,2.33
2022-12-22T11:18:34.709Z,2.33
2022-12-22T11:21:08.765Z,3.38
2022-12-22T11:24:00.852Z,2.50
2022-12-22T11:27:03.409Z,2.30
2022-12-22T11:30:12.883Z,2.90
2022-12-22T11:33:01.984Z,2.97
2022-12-22T11:35:35.527Z,2.92
2022-12-22T11:38:12.290Z,2.75
2022-12-22T11:40:47.028Z,3.15
2022-12-22T11:43:23.613Z,3.38
2022-12-22T11:45:50.991Z,2.72
2022-12-22T11:48:45.845Z,2.80
2022-12-22T11:51:23.811Z,2.65
2022-12-22T11:53:54.645Z,2.13
2022-12-22T11:56:31.347Z,2.72
2022-12-22T11:59:01.711Z,2.70
2022-12-22T12:01:56.968Z,2.58
2022-12-22T12:04:27.244Z,2.20
2022-12-22T12:07:21.966Z,2.13
2022-12-22T12:10:29.152Z,2.25
2022-12-22T12:13:06.001Z,2.00
2022-12-22T12:15:38.079Z,2.05
2022-12-22T12:18:36.150Z,2.20
2022-12-22T12:21:09.526Z,1.90
2022-12-22T12:23:48.974Z,2.00
2022-12-22T12:26:24.240Z,2.17
2022-12-22T12:29:20.945Z,1.90
2022-12-22T12:32:03.668Z,2.13
2022-12-22T12:34:34.857Z,1.92
2022-12-22T12:37:03.955Z,1.67
2022-12-22T12:39:42.734Z,1.95
2022-12-22T12:42:18.946Z,1.90
2022-12-22T12:44:47.338Z,1.98
2022-12-22T12:47:32.613Z,1.70
2022-12-22T12:50:20.215Z,2.08
2022-12-22T12:52:48.892Z,1.63
2022-12-22T12:55:35.077Z,1.60
2022-12-22T12:58:04.744Z,1.50
2022-12-22T13:00:35.227Z,1.85
2022-12-22T13:03:20.016Z,1.20
2022-12-22T13:06:07.350Z,1.80
2022-12-22T13:09:40.290Z,1.35
2022-12-22T13:12:13.741Z,1.58
2022-12-22T13:15:00.628Z,1.05
2022-12-22T13:17:39.937Z,2.05
2022-12-22T13:20:15.617Z,1.70
2022-12-22T13:22:44.039Z,1.67
2022-12-22T13:25:18.505Z,1.17
2022-12-22T13:27:46.341Z,1.42
2022-12-22T13:30:20.461Z,1.35
2022-12-22T13:32:49.970Z,1.50
2022-12-22T13:35:32.707Z,1.65
2022-12-22T13:38:01.185Z,1.30
2022-12-22T13:40:40.709Z,1.63
2022-12-22T13:43:15.364Z,1.80
2022-12-22T13:45:49.446Z,1.38
2022-12-22T13:48:30.742Z,1.30
2022-12-22T13:51:01.929Z,1.67
2022-12-22T13:56:27.271Z,1.50
2022-12-22T13:58:59.699Z,1.77
2022-12-22T14:01:27.255Z,1.05
2022-12-22T14:04:01.901Z,1.60
2022-12-22T14:06:40.503Z,1.58
2022-12-22T14:09:18.363Z,1.42
2022-12-22T14:12:00.908Z,1.77
2022-12-22T14:14:48.920Z,1.40
2022-12-22T14:17:23.691Z,1.63
2022-12-22T14:19:53.629Z,1.45
2022-12-22T14:22:45.578Z,1.60
2022-12-22T14:25:18.873Z,1.48
2022-12-22T14:27:49.282Z,1.50
2022-12-22T14:30:19.179Z,1.60
2022-12-22T14:32:56.867Z,1.73
2022-12-22T14:35:29.097Z,1.50
2022-12-22T14:38:20.660Z,1.50
2022-12-22T14:40:52.692Z,1.63
2022-12-22T14:43:28.183Z,1.85
2022-12-22T14:46:09.061Z,1.52
2022-12-22T14:48:46.550Z,1.77
2022-12-22T14:51:20.986Z,1.23
2022-12-22T14:53:50.285Z,1.80
2022-12-22T14:56:18.675Z,1.75
2022-12-22T14:58:48.282Z,1.70
2022-12-22T15:01:30.738Z,1.90
2022-12-22T15:04:22.664Z,1.67
2022-12-22T15:06:50.380Z,1.88
2022-12-22T15:09:28.349Z,1.60
2022-12-22T15:12:13.550Z,1.55
2022-12-22T15:14:41.958Z,1.50
2022-12-22T15:17:21.637Z,1.52
2022-12-22T15:19:49.822Z,1.67
2022-12-22T15:22:17.162Z,1.50
2022-12-22T15:24:44.491Z,1.50
2022-12-22T15:27:11.920Z,1.73
2022-12-22T15:29:39.257Z,1.80
2022-12-22T15:32:13.044Z,1.83
2022-12-22T15:34:40.658Z,1.98
2022-12-22T15:37:12.907Z,1.70
2022-12-22T15:39:40.722Z,1.50
2022-12-22T15:42:08.055Z,1.80
2022-12-22T15:44:38.903Z,1.95
2022-12-22T15:47:10.627Z,2.03
2022-12-22T15:49:38.424Z,2.08
2022-12-22T15:52:07.174Z,2.00
2022-12-22T15:54:36.481Z,1.83
2022-12-22T15:57:04.012Z,1.08
2022-12-22T15:59:31.499Z,1.75
2022-12-22T16:02:01.676Z,1.60
2022-12-22T16:04:33.405Z,1.92
2022-12-22T16:07:00.726Z,1.73
2022-12-22T16:09:32.924Z,1.70
2022-12-22T16:12:00.352Z,1.80
2022-12-22T16:14:31.192Z,1.48
2022-12-22T16:17:01.235Z,2.08
2022-12-22T16:19:28.667Z,2.10
2022-12-22T16:21:56.291Z,2.22
2022-12-22T16:24:28.211Z,1.65
2022-12-22T16:26:57.155Z,1.83
2022-12-22T16:29:25.635Z,1.80
2022-12-22T16:31:53.867Z,2.00
2022-12-22T16:34:21.307Z,2.08
2022-12-22T16:36:48.801Z,1.75
2022-12-22T16:39:16.094Z,1.90
2022-12-22T16:41:45.214Z,1.85
2022-12-22T16:47:20.097Z,1.50
2022-12-22T16:49:49.237Z,1.58
2022-12-22T16:52:22.784Z,1.30
2022-12-22T16:54:52.793Z,1.30
2022-12-22T16:57:20.493Z,1.50
2022-12-22T16:59:47.874Z,1.70
2022-12-22T17:02:20.515Z,1.80
2022-12-22T17:04:48.256Z,1.63
2022-12-22T17:07:15.854Z,1.50
2022-12-22T17:09:49.877Z,1.52
2022-12-22T17:12:20.843Z,1.70
2022-12-22T17:14:49.109Z,1.50
2022-12-22T17:17:30.949Z,1.60
2022-12-22T17:20:00.471Z,1.95
2022-12-22T17:22:30.488Z,1.52
2022-12-22T17:25:02.285Z,1.40
2022-12-22T17:27:31.387Z,1.80
2022-12-22T17:30:03.592Z,1.40
2022-12-22T17:32:30.913Z,1.83
2022-12-22T17:34:58.213Z,1.88
2022-12-22T17:37:26.392Z,1.80
2022-12-22T17:40:00.182Z,1.83
2022-12-22T17:42:27.842Z,1.48
2022-12-22T17:44:55.279Z,1.92
2022-12-22T17:47:30.543Z,1.70
2022-12-22T17:49:58.902Z,1.80
2022-12-22T17:52:28.215Z,1.40
2022-12-22T17:54:56.013Z,2.00
2022-12-22T17:57:27.752Z,1.70
2022-12-22T17:59:55.132Z,1.75
2022-12-22T18:02:24.218Z,1.80
2022-12-22T18:04:52.161Z,1.83
2022-12-22T18:07:22.062Z,2.63
2022-12-22T18:09:53.771Z,1.85
2022-12-22T18:12:23.189Z,1.75
2022-12-22T18:14:51.375Z,1.63
2022-12-22T18:17:35.406Z,1.90
2022-12-22T18:20:04.007Z,2.00
2022-12-22T18:22:31.342Z,1.88
2022-12-22T18:24:58.775Z,2.60
2022-12-22T18:27:26.204Z,2.50
2022-12-22T18:29:53.521Z,2.30
2022-12-22T18:32:27.622Z,1.88
2022-12-22T18:34:55.453Z,2.25
2022-12-22T18:37:22.899Z,2.25
2022-12-22T18:39:50.286Z,1.80
2022-12-22T18:42:22.052Z,2.30
2022-12-22T18:44:50.401Z,2.25
2022-12-22T18:47:18.012Z,2.63
2022-12-22T18:49:46.081Z,2.70
2022-12-22T18:52:23.216Z,2.03
2022-12-22T18:54:50.699Z,2.80
2022-12-22T18:57:20.161Z,2.33
2022-12-22T18:59:48.931Z,1.95
2022-12-22T19:02:24.735Z,2.50
2022-12-22T19:04:53.371Z,2.50
2022-12-22T19:07:23.266Z,2.47
2022-12-22T19:09:51.619Z,2.40
2022-12-22T19:12:23.377Z,2.50
2022-12-22T19:14:55.141Z,2.47
2022-12-22T19:17:29.266Z,2.60
2022-12-22T19:19:57.831Z,2.47
2022-12-22T19:22:25.362Z,3.03
2022-12-22T19:24:57.421Z,2.80
2022-12-22T19:27:27.426Z,2.28
2022-12-22T19:30:03.629Z,2.83
2022-12-22T19:32:40.159Z,2.85
2022-12-22T19:35:16.972Z,3.60
2022-12-22T19:37:45.795Z,2.97
2022-12-22T19:40:14.855Z,3.30
2022-12-22T19:42:44.862Z,2.95
2022-12-22T19:45:26.749Z,3.28
2022-12-22T19:47:55.841Z,2.83
2022-12-22T19:50:26.221Z,3.20
2022-12-22T19:52:54.840Z,3.25
2022-12-22T19:55:25.362Z,2.53
2022-12-22T19:57:53.505Z,3.22
2022-12-22T20:00:27.174Z,3.33
2022-12-22T20:02:56.944Z,3.22
2022-12-22T20:05:24.376Z,3.35
2022-12-22T20:07:56.769Z,3.10
2022-12-22T20:10:25.736Z,3.47
2022-12-22T20:12:56.192Z,2.95
2022-12-22T20:15:30.149Z,3.95
2022-12-22T20:17:58.299Z,4.13
2022-12-22T20:20:34.981Z,3.33
2022-12-22T20:23:06.428Z,2.50
2022-12-22T20:25:40.833Z,3.67
2022-12-22T20:28:20.806Z,3.85
2022-12-22T20:30:48.995Z,3.30
2022-12-22T20:33:18.734Z,3.35
2022-12-22T20:35:47.728Z,3.70
2022-12-22T20:38:20.891Z,3.90
2022-12-22T20:40:49.608Z,2.25
2022-12-22T20:43:19.990Z,2.60
2022-12-22T20:45:50.462Z,4.03
2022-12-22T20:48:39.669Z,3.80
2022-12-22T20:51:10.788Z,2.90
2022-12-22T20:53:38.102Z,3.42
2022-12-22T20:56:16.475Z,3.45
2022-12-22T20:58:43.963Z,3.40
2022-12-22T21:01:11.435Z,3.60
2022-12-22T21:03:39.073Z,3.95
2022-12-22T21:06:26.756Z,4.03
2022-12-22T21:08:56.458Z,3.55
2022-12-22T21:11:24.341Z,3.63
2022-12-22T21:13:51.736Z,3.50
2022-12-22T21:16:24.050Z,3.97
2022-12-22T21:18:52.057Z,3.50
2022-12-22T21:21:20.059Z,4.22
2022-12-22T21:23:47.435Z,3.72
2022-12-22T21:26:35.308Z,3.58
2022-12-22T21:29:08.102Z,4.20
2022-12-22T21:31:35.541Z,3.40
2022-12-22T21:34:02.880Z,3.63
2022-12-22T21:36:33.831Z,3.30
2022-12-22T21:39:06.087Z,3.58
2022-12-22T21:41:53.994Z,3.00
2022-12-22T21:44:21.575Z,4.00
2022-12-22T21:46:49.119Z,2.92
2022-12-22T21:49:26.422Z,3.53
2022-12-22T21:51:54.902Z,2.95
2022-12-22T21:54:24.520Z,3.45
2022-12-22T21:56:53.811Z,3.42
2022-12-22T21:59:22.107Z,3.45
2022-12-22T22:01:52.746Z,3.58
2022-12-22T22:04:21.389Z,3.20
2022-12-22T22:06:48.947Z,3.55
2022-12-22T22:09:16.473Z,3.67
2022-12-22T22:12:02.442Z,3.75
2022-12-22T22:14:29.915Z,4.35
2022-12-22T22:16:57.348Z,3.60
2022-12-22T22:19:24.804Z,3.10
2022-12-22T22:21:52.209Z,3.85
2022-12-22T22:24:20.162Z,3.83
2022-12-22T22:26:49.358Z,3.08
2022-12-22T22:29:17.002Z,4.13
2022-12-22T22:31:44.667Z,3.53
2022-12-22T22:34:12.407Z,3.97
2022-12-22T22:36:40.097Z,4.47
2022-12-22T22:39:09.223Z,4.15
2022-12-22T22:41:43.007Z,3.65
2022-12-22T22:44:11.668Z,4.07
2022-12-22T22:46:39.316Z,4.10
2022-12-22T22:49:07.633Z,4.25
2022-12-22T22:51:35.004Z,4.38
2022-12-22T22:54:02.349Z,4.30
2022-12-22T22:56:29.675Z,4.68
2022-12-22T22:58:59.382Z,4.75
2022-12-22T23:01:26.845Z,3.75
2022-12-22T23:03:54.341Z,4.13
2022-12-22T23:06:21.874Z,4.35
2022-12-22T23:08:49.839Z,3.80
2022-12-22T23:11:17.644Z,4.47
2022-12-22T23:13:45.695Z,2.45
2022-12-22T23:16:13.281Z,3.88
2022-12-22T23:18:41.288Z,3.10
2022-12-22T23:21:09.774Z,3.83
2022-12-22T23:23:37.344Z,4.65
2022-12-22T23:26:06.140Z,4.57
2022-12-22T23:28:34.408Z,4.70
2022-12-22T23:31:01.969Z,5.18
2022-12-22T23:33:32.316Z,4.55
2022-12-22T23:35:59.738Z,3.75
2022-12-22T23:38:27.215Z,3.80
2022-12-22T23:41:02.901Z,4.30
2022-12-22T23:43:31.022Z,4.90
2022-12-22T23:45:58.473Z,5.20
2022-12-22T23:48:25.957Z,5.50
2022-12-22T23:50:53.451Z,4.65
2022-12-22T23:53:20.920Z,4.88
2022-12-22T23:55:48.715Z,5.53
2022-12-22T23:58:16.999Z,5.63
